sensor_id;sensor_type;location;lat;lon;timestamp;pressure;altitude;pressure_sealevel;temperature;humidity
7940;BME280;4015;48.888;9.226;2024-03-22T00:01:46;157626.50;;;9.48;87.57
7940;BME280;4015;48.888;9.226;2024-03-22T00:04:12;157626.50;;;9.48;87.23
7940;BME280;4015;48.888;9.226;2024-03-22T00:06:38;157618.88;;;9.45;87.39
7940;BME280;4015;48.888;9.226;2024-03-22T00:09:04;157599.72;;;9.37;87.78
7940;BME280;4015;48.888;9.226;2024-03-22T00:11:29;157579.28;;;9.29;88.50
7940;BME280;4015;48.888;9.226;2024-03-22T00:13:54;157542.28;;;9.14;88.14
7940;BME280;4015;48.888;9.226;2024-03-22T00:16:20;157509.09;;;9.01;88.60
7940;BME280;4015;48.888;9.226;2024-03-22T00:18:45;157514.19;;;9.03;88.83
7940;BME280;4015;48.888;9.226;2024-03-22T00:21:10;157515.47;;;9.04;88.74
7940;BME280;4015;48.888;9.226;2024-03-22T00:23:36;157518.00;;;9.05;88.32
7940;BME280;4015;48.888;9.226;2024-03-22T00:26:01;157509.09;;;9.01;88.48
7940;BME280;4015;48.888;9.226;2024-03-22T00:28:26;157504.00;;;8.99;88.81
7940;BME280;4015;48.888;9.226;2024-03-22T00:30:52;157481.03;;;8.90;88.64
7940;BME280;4015;48.888;9.226;2024-03-22T00:33:17;157475.94;;;8.88;88.71
7940;BME280;4015;48.888;9.226;2024-03-22T00:35:42;157469.53;;;8.85;89.44
7940;BME280;4015;48.888;9.226;2024-03-22T00:38:07;157492.50;;;8.95;89.03
7940;BME280;4015;48.888;9.226;2024-03-22T00:40:33;157488.69;;;8.93;88.57
7940;BME280;4015;48.888;9.226;2024-03-22T00:42:58;157489.97;;;8.94;89.31
7940;BME280;4015;48.888;9.226;2024-03-22T00:45:23;157470.78;;;8.86;89.10
7940;BME280;4015;48.888;9.226;2024-03-22T00:47:49;157454.22;;;8.79;88.78
7940;BME280;4015;48.888;9.226;2024-03-22T00:50:14;157437.63;;;8.73;89.00
7940;BME280;4015;48.888;9.226;2024-03-22T00:52:39;157417.22;;;8.64;89.21
7940;BME280;4015;48.888;9.226;2024-03-22T00:55:05;157410.88;;;8.62;89.72
7940;BME280;4015;48.888;9.226;2024-03-22T00:57:30;157419.78;;;8.65;89.02
7940;BME280;4015;48.888;9.226;2024-03-22T00:59:56;157403.19;;;8.59;88.94
7940;BME280;4015;48.888;9.226;2024-03-22T01:02:21;157409.59;;;8.61;91.47
7940;BME280;4015;48.888;9.226;2024-03-22T01:04:47;157407.00;;;8.60;92.34
7940;BME280;4015;48.888;9.226;2024-03-22T01:07:13;157393.03;;;8.55;91.45
7940;BME280;4015;48.888;9.226;2024-03-22T01:09:38;157385.34;;;8.52;91.20
7940;BME280;4015;48.888;9.226;2024-03-22T01:12:03;157384.06;;;8.51;91.29
7940;BME280;4015;48.888;9.226;2024-03-22T01:14:30;157366.22;;;8.44;91.04
7940;BME280;4015;48.888;9.226;2024-03-22T01:16:55;157359.81;;;8.42;91.36
7940;BME280;4015;48.888;9.226;2024-03-22T01:19:20;157349.63;;;8.37;90.67
7940;BME280;4015;48.888;9.226;2024-03-22T01:21:46;157336.81;;;8.32;91.18
7940;BME280;4015;48.888;9.226;2024-03-22T01:24:11;157317.69;;;8.25;91.13
7940;BME280;4015;48.888;9.226;2024-03-22T01:26:37;157298.59;;;8.17;91.48
7940;BME280;4015;48.888;9.226;2024-03-22T01:29:03;157297.25;;;8.17;91.16
7940;BME280;4015;48.888;9.226;2024-03-22T01:31:28;157285.81;;;8.12;90.51
7940;BME280;4015;48.888;9.226;2024-03-22T01:33:53;157267.97;;;8.05;90.87
7940;BME280;4015;48.888;9.226;2024-03-22T01:36:19;157245.00;;;7.96;90.63
7940;BME280;4015;48.888;9.226;2024-03-22T01:38:44;157230.97;;;7.90;90.37
7940;BME280;4015;48.888;9.226;2024-03-22T01:41:09;157213.13;;;7.83;90.41
7940;BME280;4015;48.888;9.226;2024-03-22T01:43:34;157196.53;;;7.76;90.80
7940;BME280;4015;48.888;9.226;2024-03-22T01:46:00;157194.00;;;7.75;91.13
7940;BME280;4015;48.888;9.226;2024-03-22T01:48:25;157182.50;;;7.71;91.06
7940;BME280;4015;48.888;9.226;2024-03-22T01:50:50;157177.44;;;7.69;91.06
7940;BME280;4015;48.888;9.226;2024-03-22T01:53:17;157159.59;;;7.62;90.99
7940;BME280;4015;48.888;9.226;2024-03-22T01:55:43;157134.06;;;7.51;91.08
7940;BME280;4015;48.888;9.226;2024-03-22T01:58:08;157125.13;;;7.48;91.15
7940;BME280;4015;48.888;9.226;2024-03-22T02:00:33;157077.97;;;7.29;91.44
7940;BME280;4015;48.888;9.226;2024-03-22T02:02:59;157066.53;;;7.24;91.41
7940;BME280;4015;48.888;9.226;2024-03-22T02:05:24;157051.22;;;7.18;91.54
7940;BME280;4015;48.888;9.226;2024-03-22T02:07:49;157006.63;;;7.00;92.37
7940;BME280;4015;48.888;9.226;2024-03-22T02:10:15;156978.56;;;6.89;93.09
7940;BME280;4015;48.888;9.226;2024-03-22T02:12:41;156993.88;;;6.95;93.57
7940;BME280;4015;48.888;9.226;2024-03-22T02:15:07;156990.06;;;6.94;93.86
7940;BME280;4015;48.888;9.226;2024-03-22T02:17:34;156976.03;;;6.88;93.88
7940;BME280;4015;48.888;9.226;2024-03-22T02:20:00;156978.56;;;6.89;93.90
7940;BME280;4015;48.888;9.226;2024-03-22T02:22:26;156977.31;;;6.89;93.73
7940;BME280;4015;48.888;9.226;2024-03-22T02:24:51;156979.84;;;6.90;93.44
7940;BME280;4015;48.888;9.226;2024-03-22T02:27:17;156979.84;;;6.90;93.26
7940;BME280;4015;48.888;9.226;2024-03-22T02:29:42;156962.00;;;6.83;93.33
7940;BME280;4015;48.888;9.226;2024-03-22T02:32:07;156927.63;;;6.69;94.23
7940;BME280;4015;48.888;9.226;2024-03-22T02:34:33;156919.94;;;6.66;94.83
7940;BME280;4015;48.888;9.226;2024-03-22T02:36:58;156919.94;;;6.66;94.90
7940;BME280;4015;48.888;9.226;2024-03-22T02:39:23;156918.69;;;6.65;94.97
7940;BME280;4015;48.888;9.226;2024-03-22T02:41:50;156923.81;;;6.67;94.85
7940;BME280;4015;48.888;9.226;2024-03-22T02:44:16;156917.41;;;6.65;95.40
7940;BME280;4015;48.888;9.226;2024-03-22T02:46:41;156885.56;;;6.52;95.46
7940;BME280;4015;48.888;9.226;2024-03-22T02:49:06;156870.28;;;6.46;95.89
7940;BME280;4015;48.888;9.226;2024-03-22T02:51:31;156865.19;;;6.44;95.73
7940;BME280;4015;48.888;9.226;2024-03-22T02:53:57;156869.00;;;6.45;95.07
7940;BME280;4015;48.888;9.226;2024-03-22T02:56:23;156840.97;;;6.34;95.91
7940;BME280;4015;48.888;9.226;2024-03-22T02:58:51;156818.06;;;6.25;97.16
7940;BME280;4015;48.888;9.226;2024-03-22T03:01:16;156812.97;;;6.23;97.89
7940;BME280;4015;48.888;9.226;2024-03-22T03:03:42;156810.38;;;6.22;98.91
7940;BME280;4015;48.888;9.226;2024-03-22T03:06:07;156809.13;;;6.21;99.09
7940;BME280;4015;48.888;9.226;2024-03-22T03:08:33;156811.72;;;6.22;99.49
7940;BME280;4015;48.888;9.226;2024-03-22T03:10:59;156819.31;;;6.26;100.00
7940;BME280;4015;48.888;9.226;2024-03-22T03:13:24;156837.16;;;6.33;100.00
7940;BME280;4015;48.888;9.226;2024-03-22T03:15:49;156839.69;;;6.34;100.00
7940;BME280;4015;48.888;9.226;2024-03-22T03:18:15;156851.16;;;6.38;100.00
7940;BME280;4015;48.888;9.226;2024-03-22T03:20:40;156858.84;;;6.41;100.00
7940;BME280;4015;48.888;9.226;2024-03-22T03:23:05;156852.44;;;6.39;99.99
7940;BME280;4015;48.888;9.226;2024-03-22T03:25:30;156865.19;;;6.44;100.00
7940;BME280;4015;48.888;9.226;2024-03-22T03:27:56;156874.13;;;6.47;100.00
7940;BME280;4015;48.888;9.226;2024-03-22T03:30:21;156867.72;;;6.45;100.00
7940;BME280;4015;48.888;9.226;2024-03-22T03:32:46;156875.41;;;6.48;100.00
7940;BME280;4015;48.888;9.226;2024-03-22T03:35:12;156884.28;;;6.52;100.00
7940;BME280;4015;48.888;9.226;2024-03-22T03:37:37;156876.66;;;6.48;100.00
7940;BME280;4015;48.888;9.226;2024-03-22T03:40:02;156862.66;;;6.43;100.00
7940;BME280;4015;48.888;9.226;2024-03-22T03:42:29;156865.19;;;6.44;100.00
7940;BME280;4015;48.888;9.226;2024-03-22T03:44:55;156861.38;;;6.42;100.00
7940;BME280;4015;48.888;9.226;2024-03-22T03:47:20;156866.47;;;6.44;100.00
7940;BME280;4015;48.888;9.226;2024-03-22T03:49:46;156883.03;;;6.51;100.00
7940;BME280;4015;48.888;9.226;2024-03-22T03:52:11;156877.94;;;6.49;100.00
7940;BME280;4015;48.888;9.226;2024-03-22T03:54:36;156885.56;;;6.52;100.00
7940;BME280;4015;48.888;9.226;2024-03-22T03:57:02;156902.13;;;6.59;99.83
7940;BME280;4015;48.888;9.226;2024-03-22T03:59:27;156888.09;;;6.53;99.58
7940;BME280;4015;48.888;9.226;2024-03-22T04:01:52;156895.75;;;6.56;100.00
7940;BME280;4015;48.888;9.226;2024-03-22T04:04:18;156911.06;;;6.62;99.54
7940;BME280;4015;48.888;9.226;2024-03-22T04:06:44;156940.38;;;6.74;99.06
7940;BME280;4015;48.888;9.226;2024-03-22T04:09:09;156967.09;;;6.85;98.33
7940;BME280;4015;48.888;9.226;2024-03-22T04:11:35;156972.22;;;6.87;97.58
7940;BME280;4015;48.888;9.226;2024-03-22T04:14:00;156983.66;;;6.91;97.38
7940;BME280;4015;48.888;9.226;2024-03-22T04:16:25;156993.88;;;6.95;97.08
7940;BME280;4015;48.888;9.226;2024-03-22T04:18:51;156986.25;;;6.92;96.47
7940;BME280;4015;48.888;9.226;2024-03-22T04:21:17;156981.13;;;6.90;95.72
7940;BME280;4015;48.888;9.226;2024-03-22T04:23:42;156974.75;;;6.88;95.45
7940;BME280;4015;48.888;9.226;2024-03-22T04:26:08;156991.31;;;6.94;95.78
7940;BME280;4015;48.888;9.226;2024-03-22T04:28:33;157006.63;;;7.00;95.04
7940;BME280;4015;48.888;9.226;2024-03-22T04:31:06;157015.56;;;7.04;95.10
7940;BME280;4015;48.888;9.226;2024-03-22T04:33:33;157021.91;;;7.07;95.29
7940;BME280;4015;48.888;9.226;2024-03-22T04:35:59;157051.22;;;7.18;95.26
7940;BME280;4015;48.888;9.226;2024-03-22T04:38:26;157067.78;;;7.25;95.02
7940;BME280;4015;48.888;9.226;2024-03-22T04:40:52;157090.72;;;7.34;94.62
7940;BME280;4015;48.888;9.226;2024-03-22T04:43:18;157100.94;;;7.38;94.58
7940;BME280;4015;48.888;9.226;2024-03-22T04:45:45;157107.28;;;7.41;94.57
7940;BME280;4015;48.888;9.226;2024-03-22T04:48:13;157122.59;;;7.47;94.10
7940;BME280;4015;48.888;9.226;2024-03-22T04:50:38;157128.97;;;7.49;94.04
7940;BME280;4015;48.888;9.226;2024-03-22T04:53:04;157127.72;;;7.49;94.39
7940;BME280;4015;48.888;9.226;2024-03-22T04:55:30;157148.09;;;7.57;94.36
7940;BME280;4015;48.888;9.226;2024-03-22T04:57:55;157151.91;;;7.58;93.79
7940;BME280;4015;48.888;9.226;2024-03-22T05:00:21;157137.88;;;7.53;93.93
7940;BME280;4015;48.888;9.226;2024-03-22T05:02:46;157141.75;;;7.54;94.33
7940;BME280;4015;48.888;9.226;2024-03-22T05:05:12;157104.75;;;7.40;94.47
7940;BME280;4015;48.888;9.226;2024-03-22T05:07:38;157126.44;;;7.48;94.53
7940;BME280;4015;48.888;9.226;2024-03-22T05:10:03;157154.44;;;7.60;94.04
7940;BME280;4015;48.888;9.226;2024-03-22T05:12:29;157155.72;;;7.60;93.62
7940;BME280;4015;48.888;9.226;2024-03-22T05:14:54;157171.03;;;7.66;93.59
7940;BME280;4015;48.888;9.226;2024-03-22T05:17:20;157183.78;;;7.71;92.60
7940;BME280;4015;48.888;9.226;2024-03-22T05:19:45;157187.59;;;7.73;92.28
7940;BME280;4015;48.888;9.226;2024-03-22T05:22:10;157188.91;;;7.73;92.26
7940;BME280;4015;48.888;9.226;2024-03-22T05:24:36;157216.94;;;7.84;91.85
7940;BME280;4015;48.888;9.226;2024-03-22T05:27:01;157195.28;;;7.76;91.88
7940;BME280;4015;48.888;9.226;2024-03-22T05:29:26;157205.47;;;7.80;92.41
7940;BME280;4015;48.888;9.226;2024-03-22T05:31:52;157210.56;;;7.82;92.55
7940;BME280;4015;48.888;9.226;2024-03-22T05:34:18;157228.41;;;7.89;91.95
7940;BME280;4015;48.888;9.226;2024-03-22T05:36:44;157241.19;;;7.94;91.92
7940;BME280;4015;48.888;9.226;2024-03-22T05:39:10;157255.22;;;8.00;91.11
7940;BME280;4015;48.888;9.226;2024-03-22T05:41:38;157238.63;;;7.93;91.41
7940;BME280;4015;48.888;9.226;2024-03-22T05:44:04;157250.06;;;7.98;91.39
7940;BME280;4015;48.888;9.226;2024-03-22T05:46:30;157260.28;;;8.02;90.95
7940;BME280;4015;48.888;9.226;2024-03-22T05:48:57;157267.97;;;8.05;90.66
7940;BME280;4015;48.888;9.226;2024-03-22T05:51:22;157280.69;;;8.10;90.26
7940;BME280;4015;48.888;9.226;2024-03-22T05:53:48;157287.09;;;8.13;90.59
7940;BME280;4015;48.888;9.226;2024-03-22T05:56:13;157296.00;;;8.16;90.03
7940;BME280;4015;48.888;9.226;2024-03-22T05:58:39;157303.66;;;8.19;89.24
7940;BME280;4015;48.888;9.226;2024-03-22T06:01:04;157289.63;;;8.14;88.62
7940;BME280;4015;48.888;9.226;2024-03-22T06:03:30;157253.94;;;7.99;88.93
7940;BME280;4015;48.888;9.226;2024-03-22T06:05:55;157241.19;;;7.94;89.63
7940;BME280;4015;48.888;9.226;2024-03-22T06:08:24;157222.06;;;7.87;90.25
7940;BME280;4015;48.888;9.226;2024-03-22T06:10:50;157195.28;;;7.76;90.94
7940;BME280;4015;48.888;9.226;2024-03-22T06:13:16;157222.06;;;7.87;90.35
7940;BME280;4015;48.888;9.226;2024-03-22T06:15:43;157253.94;;;7.99;90.43
7940;BME280;4015;48.888;9.226;2024-03-22T06:18:11;157257.75;;;8.01;90.28
7940;BME280;4015;48.888;9.226;2024-03-22T06:20:36;157264.09;;;8.03;90.12
7940;BME280;4015;48.888;9.226;2024-03-22T06:23:01;157345.81;;;8.36;89.36
7940;BME280;4015;48.888;9.226;2024-03-22T06:25:27;157504.00;;;8.99;87.28
7940;BME280;4015;48.888;9.226;2024-03-22T06:27:52;157649.50;;;9.57;83.39
7940;BME280;4015;48.888;9.226;2024-03-22T06:30:18;157733.75;;;9.91;81.49
7940;BME280;4015;48.888;9.226;2024-03-22T06:32:43;157718.41;;;9.85;80.85
7940;BME280;4015;48.888;9.226;2024-03-22T06:35:08;157673.72;;;9.67;82.38
7940;BME280;4015;48.888;9.226;2024-03-22T06:37:34;157752.88;;;9.98;82.23
7940;BME280;4015;48.888;9.226;2024-03-22T06:39:59;157926.63;;;10.68;79.43
7940;BME280;4015;48.888;9.226;2024-03-22T06:42:24;158136.22;;;11.51;77.36
7940;BME280;4015;48.888;9.226;2024-03-22T06:44:51;158246.22;;;11.95;75.59
7940;BME280;4015;48.888;9.226;2024-03-22T06:47:17;158316.50;;;12.23;74.70
7940;BME280;4015;48.888;9.226;2024-03-22T06:49:46;158481.53;;;12.89;72.84
7940;BME280;4015;48.888;9.226;2024-03-22T06:52:11;158595.44;;;13.34;71.68
7940;BME280;4015;48.888;9.226;2024-03-22T06:54:37;158695.22;;;13.74;70.66
7940;BME280;4015;48.888;9.226;2024-03-22T06:57:02;158800.22;;;14.16;68.71
7940;BME280;4015;48.888;9.226;2024-03-22T06:59:28;158865.50;;;14.42;67.31
7940;BME280;4015;48.888;9.226;2024-03-22T07:01:53;158998.72;;;14.95;66.48
7940;BME280;4015;48.888;9.226;2024-03-22T07:04:18;159024.34;;;15.05;66.20
7940;BME280;4015;48.888;9.226;2024-03-22T07:06:44;159005.16;;;14.97;65.43
7940;BME280;4015;48.888;9.226;2024-03-22T07:09:09;159029.47;;;15.07;65.62
7940;BME280;4015;48.888;9.226;2024-03-22T07:11:34;159094.78;;;15.33;64.55
7940;BME280;4015;48.888;9.226;2024-03-22T07:14:00;159075.59;;;15.25;65.42
7940;BME280;4015;48.888;9.226;2024-03-22T07:16:25;159048.66;;;15.15;66.14
7940;BME280;4015;48.888;9.226;2024-03-22T07:18:50;159142.19;;;15.52;64.46
7940;BME280;4015;48.888;9.226;2024-03-22T07:21:15;159062.75;;;15.20;65.30
7940;BME280;4015;48.888;9.226;2024-03-22T07:23:41;159106.34;;;15.37;64.78
7940;BME280;4015;48.888;9.226;2024-03-22T07:26:06;158965.44;;;14.81;68.17
7940;BME280;4015;48.888;9.226;2024-03-22T07:28:33;159210.19;;;15.79;64.28
7940;BME280;4015;48.888;9.226;2024-03-22T07:30:59;159189.66;;;15.71;63.62
7940;BME280;4015;48.888;9.226;2024-03-22T07:33:24;159194.81;;;15.73;64.01
7940;BME280;4015;48.888;9.226;2024-03-22T07:35:49;159279.38;;;16.06;63.84
7940;BME280;4015;48.888;9.226;2024-03-22T07:38:15;159298.59;;;16.14;64.69
7940;BME280;4015;48.888;9.226;2024-03-22T07:40:40;159515.31;;;17.00;61.70
7940;BME280;4015;48.888;9.226;2024-03-22T07:43:06;159576.88;;;17.24;61.69
7940;BME280;4015;48.888;9.226;2024-03-22T07:45:35;159483.25;;;16.87;61.92
7940;BME280;4015;48.888;9.226;2024-03-22T07:48:00;159548.66;;;17.13;60.79
7940;BME280;4015;48.888;9.226;2024-03-22T07:50:25;159680.75;;;17.66;60.60
7940;BME280;4015;48.888;9.226;2024-03-22T07:52:51;159798.88;;;18.13;59.00
7940;BME280;4015;48.888;9.226;2024-03-22T07:55:16;159797.59;;;18.12;58.29
7940;BME280;4015;48.888;9.226;2024-03-22T07:57:42;159830.97;;;18.25;58.95
7940;BME280;4015;48.888;9.226;2024-03-22T08:00:07;159854.03;;;18.34;58.45
7940;BME280;4015;48.888;9.226;2024-03-22T08:02:33;159869.44;;;18.41;57.52
7940;BME280;4015;48.888;9.226;2024-03-22T08:04:58;159815.56;;;18.19;58.16
7940;BME280;4015;48.888;9.226;2024-03-22T08:07:24;159875.88;;;18.43;59.06
7940;BME280;4015;48.888;9.226;2024-03-22T08:09:49;160130.13;;;19.44;56.43
7940;BME280;4015;48.888;9.226;2024-03-22T08:12:15;159877.16;;;18.44;56.99
7940;BME280;4015;48.888;9.226;2024-03-22T08:14:40;159565.34;;;17.20;61.01
7940;BME280;4015;48.888;9.226;2024-03-22T08:17:07;159692.31;;;17.70;61.04
7940;BME280;4015;48.888;9.226;2024-03-22T08:19:34;159943.94;;;18.70;57.17
7940;BME280;4015;48.888;9.226;2024-03-22T08:22:00;159958.06;;;18.76;57.23
7940;BME280;4015;48.888;9.226;2024-03-22T08:24:25;160123.66;;;19.41;56.68
7940;BME280;4015;48.888;9.226;2024-03-22T08:26:50;160108.25;;;19.35;56.77
7940;BME280;4015;48.888;9.226;2024-03-22T08:29:16;160123.66;;;19.41;55.83
7940;BME280;4015;48.888;9.226;2024-03-22T08:31:41;160275.28;;;20.02;55.34
7940;BME280;4015;48.888;9.226;2024-03-22T08:34:08;160579.84;;;21.22;53.95
7940;BME280;4015;48.888;9.226;2024-03-22T08:36:34;160749.63;;;21.90;50.65
7940;BME280;4015;48.888;9.226;2024-03-22T08:38:59;161036.53;;;23.03;49.00
7940;BME280;4015;48.888;9.226;2024-03-22T08:41:25;160958.00;;;22.72;49.50
7940;BME280;4015;48.888;9.226;2024-03-22T08:43:50;160695.59;;;21.68;49.99
7940;BME280;4015;48.888;9.226;2024-03-22T08:46:15;160528.47;;;21.02;52.24
7940;BME280;4015;48.888;9.226;2024-03-22T08:48:41;160371.63;;;20.40;54.59
7940;BME280;4015;48.888;9.226;2024-03-22T08:51:06;160193.09;;;19.69;55.93
7940;BME280;4015;48.888;9.226;2024-03-22T08:53:32;160042.78;;;19.09;57.66
7940;BME280;4015;48.888;9.226;2024-03-22T08:55:57;160011.97;;;18.97;59.16
7940;BME280;4015;48.888;9.226;2024-03-22T08:58:23;159952.94;;;18.74;59.63
7940;BME280;4015;48.888;9.226;2024-03-22T09:00:48;159969.63;;;18.80;59.27
7940;BME280;4015;48.888;9.226;2024-03-22T09:03:14;160010.69;;;18.97;58.19
7940;BME280;4015;48.888;9.226;2024-03-22T09:05:40;160108.25;;;19.35;56.02
7940;BME280;4015;48.888;9.226;2024-03-22T09:08:06;160105.69;;;19.34;57.63
7940;BME280;4015;48.888;9.226;2024-03-22T09:10:32;160133.97;;;19.46;58.01
7940;BME280;4015;48.888;9.226;2024-03-22T09:12:57;160235.44;;;19.86;55.90
7940;BME280;4015;48.888;9.226;2024-03-22T09:15:23;160128.84;;;19.44;56.61
7940;BME280;4015;48.888;9.226;2024-03-22T09:17:49;160127.56;;;19.43;56.82
7940;BME280;4015;48.888;9.226;2024-03-22T09:20:15;160169.94;;;19.60;57.61
7940;BME280;4015;48.888;9.226;2024-03-22T09:22:41;160208.50;;;19.75;58.42
7940;BME280;4015;48.888;9.226;2024-03-22T09:25:06;160204.66;;;19.74;57.79
7940;BME280;4015;48.888;9.226;2024-03-22T09:27:32;160205.94;;;19.74;58.74
7940;BME280;4015;48.888;9.226;2024-03-22T09:29:58;160367.78;;;20.38;56.37
7940;BME280;4015;48.888;9.226;2024-03-22T09:32:23;160690.47;;;21.66;54.97
7940;BME280;4015;48.888;9.226;2024-03-22T09:34:49;160691.75;;;21.67;54.72
7940;BME280;4015;48.888;9.226;2024-03-22T09:37:17;160628.75;;;21.42;54.25
7940;BME280;4015;48.888;9.226;2024-03-22T09:39:43;160722.59;;;21.79;51.19
7940;BME280;4015;48.888;9.226;2024-03-22T09:42:13;160712.34;;;21.75;51.63
7940;BME280;4015;48.888;9.226;2024-03-22T09:44:49;160655.75;;;21.52;51.92
7940;BME280;4015;48.888;9.226;2024-03-22T09:47:16;160662.16;;;21.55;52.51
7940;BME280;4015;48.888;9.226;2024-03-22T09:49:42;160726.44;;;21.80;50.22
7940;BME280;4015;48.888;9.226;2024-03-22T09:52:12;160749.63;;;21.90;50.13
7940;BME280;4015;48.888;9.226;2024-03-22T09:54:38;160668.63;;;21.58;51.69
7940;BME280;4015;48.888;9.226;2024-03-22T09:57:04;160806.22;;;22.12;50.46
7940;BME280;4015;48.888;9.226;2024-03-22T09:59:29;160961.88;;;22.74;49.22
7940;BME280;4015;48.888;9.226;2024-03-22T10:01:55;160819.09;;;22.17;49.08
7940;BME280;4015;48.888;9.226;2024-03-22T10:04:21;160726.44;;;21.80;50.16
7940;BME280;4015;48.888;9.226;2024-03-22T10:06:47;160873.13;;;22.39;50.35
7940;BME280;4015;48.888;9.226;2024-03-22T10:09:13;160743.16;;;21.87;50.45
7940;BME280;4015;48.888;9.226;2024-03-22T10:11:38;160833.25;;;22.23;50.59
7940;BME280;4015;48.888;9.226;2024-03-22T10:14:03;160721.31;;;21.78;51.28
7940;BME280;4015;48.888;9.226;2024-03-22T10:16:34;160653.19;;;21.51;51.26
7940;BME280;4015;48.888;9.226;2024-03-22T10:19:00;160561.88;;;21.15;51.86
7940;BME280;4015;48.888;9.226;2024-03-22T10:21:25;160610.75;;;21.35;49.58
7940;BME280;4015;48.888;9.226;2024-03-22T10:23:53;160561.88;;;21.15;51.12
7940;BME280;4015;48.888;9.226;2024-03-22T10:26:18;160610.75;;;21.35;50.24
7940;BME280;4015;48.888;9.226;2024-03-22T10:28:44;160542.59;;;21.08;47.55
7940;BME280;4015;48.888;9.226;2024-03-22T10:31:12;160676.31;;;21.61;48.73
7940;BME280;4015;48.888;9.226;2024-03-22T10:33:38;160853.81;;;22.31;46.69
7940;BME280;4015;48.888;9.226;2024-03-22T10:36:04;160931.00;;;22.61;47.40
7940;BME280;4015;48.888;9.226;2024-03-22T10:38:30;160893.72;;;22.47;46.54
7940;BME280;4015;48.888;9.226;2024-03-22T10:40:57;160862.84;;;22.34;45.83
7940;BME280;4015;48.888;9.226;2024-03-22T10:43:24;160745.78;;;21.88;46.35
7940;BME280;4015;48.888;9.226;2024-03-22T10:45:51;160864.13;;;22.35;46.44
7940;BME280;4015;48.888;9.226;2024-03-22T10:48:21;160961.88;;;22.74;45.74
7940;BME280;4015;48.888;9.226;2024-03-22T10:50:49;160985.03;;;22.83;46.56
7940;BME280;4015;48.888;9.226;2024-03-22T10:53:24;161145.91;;;23.47;45.95
7940;BME280;4015;48.888;9.226;2024-03-22T10:55:50;161363.50;;;24.33;43.00
7940;BME280;4015;48.888;9.226;2024-03-22T10:58:21;161359.59;;;24.31;44.99
7940;BME280;4015;48.888;9.226;2024-03-22T11:00:46;161482.00;;;24.80;44.13
7940;BME280;4015;48.888;9.226;2024-03-22T11:03:15;161403.44;;;24.48;43.08
7940;BME280;4015;48.888;9.226;2024-03-22T11:05:48;161402.16;;;24.48;44.81
7940;BME280;4015;48.888;9.226;2024-03-22T11:08:23;161368.69;;;24.35;44.49
7940;BME280;4015;48.888;9.226;2024-03-22T11:10:49;161442.03;;;24.64;43.55
7940;BME280;4015;48.888;9.226;2024-03-22T11:13:16;161475.56;;;24.77;42.31
7940;BME280;4015;48.888;9.226;2024-03-22T11:15:41;161404.72;;;24.49;45.51
7940;BME280;4015;48.888;9.226;2024-03-22T11:18:07;161570.91;;;25.15;43.36
7940;BME280;4015;48.888;9.226;2024-03-22T11:20:36;161516.75;;;24.93;41.62
7940;BME280;4015;48.888;9.226;2024-03-22T11:23:03;161634.03;;;25.40;42.33
7940;BME280;4015;48.888;9.226;2024-03-22T11:25:31;161737.13;;;25.80;41.02
7940;BME280;4015;48.888;9.226;2024-03-22T11:27:57;161639.16;;;25.42;41.84
7940;BME280;4015;48.888;9.226;2024-03-22T11:30:24;161636.59;;;25.41;41.78
7940;BME280;4015;48.888;9.226;2024-03-22T11:32:50;161636.59;;;25.41;41.46
7940;BME280;4015;48.888;9.226;2024-03-22T11:35:15;161637.88;;;25.41;43.34
7940;BME280;4015;48.888;9.226;2024-03-22T11:37:41;161530.91;;;24.99;41.41
7940;BME280;4015;48.888;9.226;2024-03-22T11:40:09;161583.75;;;25.20;40.05
7940;BME280;4015;48.888;9.226;2024-03-22T11:42:37;161492.31;;;24.84;40.56
7940;BME280;4015;48.888;9.226;2024-03-22T11:45:03;161583.75;;;25.20;42.64
7940;BME280;4015;48.888;9.226;2024-03-22T11:47:29;161543.81;;;25.04;40.69
7940;BME280;4015;48.888;9.226;2024-03-22T11:49:55;161546.44;;;25.05;40.98
7940;BME280;4015;48.888;9.226;2024-03-22T11:52:27;161427.94;;;24.58;42.43
7940;BME280;4015;48.888;9.226;2024-03-22T11:54:53;161451.09;;;24.67;41.82
7940;BME280;4015;48.888;9.226;2024-03-22T11:57:20;161436.91;;;24.62;41.90
7940;BME280;4015;48.888;9.226;2024-03-22T11:59:46;161315.88;;;24.14;42.45
7940;BME280;4015;48.888;9.226;2024-03-22T12:02:11;161287.53;;;24.03;41.41
7940;BME280;4015;48.888;9.226;2024-03-22T12:04:40;161151.06;;;23.49;42.91
7940;BME280;4015;48.888;9.226;2024-03-22T12:07:10;161118.88;;;23.36;44.76
7940;BME280;4015;48.888;9.226;2024-03-22T12:09:35;160967.03;;;22.76;45.78
7940;BME280;4015;48.888;9.226;2024-03-22T12:12:00;160937.44;;;22.64;45.04
7940;BME280;4015;48.888;9.226;2024-03-22T12:14:26;160941.28;;;22.66;45.07
7940;BME280;4015;48.888;9.226;2024-03-22T12:16:51;160847.41;;;22.28;45.39
7940;BME280;4015;48.888;9.226;2024-03-22T12:19:16;160797.19;;;22.08;45.20
7940;BME280;4015;48.888;9.226;2024-03-22T12:21:42;160756.03;;;21.92;48.62
7940;BME280;4015;48.888;9.226;2024-03-22T12:24:07;160758.59;;;21.93;46.57
7940;BME280;4015;48.888;9.226;2024-03-22T12:26:33;160681.50;;;21.63;45.88
7940;BME280;4015;48.888;9.226;2024-03-22T12:28:58;160695.59;;;21.68;46.02
7940;BME280;4015;48.888;9.226;2024-03-22T12:31:24;160743.16;;;21.87;45.57
7940;BME280;4015;48.888;9.226;2024-03-22T12:33:49;160812.69;;;22.15;44.05
7940;BME280;4015;48.888;9.226;2024-03-22T12:36:14;160869.25;;;22.37;44.79
7940;BME280;4015;48.888;9.226;2024-03-22T12:38:40;160763.78;;;21.95;45.49
7940;BME280;4015;48.888;9.226;2024-03-22T12:41:05;160802.38;;;22.11;47.24
7940;BME280;4015;48.888;9.226;2024-03-22T12:43:31;160815.25;;;22.16;46.57
7940;BME280;4015;48.888;9.226;2024-03-22T12:45:56;160798.53;;;22.09;46.87
7940;BME280;4015;48.888;9.226;2024-03-22T12:48:21;160792.06;;;22.06;43.92
7940;BME280;4015;48.888;9.226;2024-03-22T12:50:47;160824.28;;;22.19;45.15
7940;BME280;4015;48.888;9.226;2024-03-22T12:53:12;160807.56;;;22.13;43.43
7940;BME280;4015;48.888;9.226;2024-03-22T12:55:37;160784.34;;;22.03;44.01
7940;BME280;4015;48.888;9.226;2024-03-22T12:58:03;160749.63;;;21.90;45.73
7940;BME280;4015;48.888;9.226;2024-03-22T13:00:30;160763.78;;;21.95;43.15
7940;BME280;4015;48.888;9.226;2024-03-22T13:02:55;160789.47;;;22.05;44.83
7940;BME280;4015;48.888;9.226;2024-03-22T13:05:20;160860.25;;;22.33;46.35
7940;BME280;4015;48.888;9.226;2024-03-22T13:07:46;160857.69;;;22.32;44.80